Time;durP1;ratioP1;P1;durP2;ratioP2;P2;SDS_P1;SDS_P2;PMS_P1;PMS_P2;Temp;Humidity;BMP_temperature;BMP_pressure;BME280_temperature;BME280_humidity;BME280_pressure;Samples;Min_cycle;Max_cycle;Signal;HPM_P1;HPM_P2
2022/06/18 00:01:35;;;;;;;5.78;3.10;;;;;;;;;;4996206;28;20494;-69
2022/06/18 00:04:03;;;;;;;4.80;2.60;;;;;;;;;;4996858;28;20042;-67
2022/06/18 00:06:31;;;;;;;6.82;2.50;;;;;;;;;;4997565;28;20038;-67
2022/06/18 00:08:58;;;;;;;4.70;2.70;;;;;;;;;;4996738;28;20045;-67
2022/06/18 00:14:11;;;;;;;5.95;2.50;;;;;;;;;;4994573;28;20152;-67
2022/06/18 00:16:38;;;;;;;5.50;2.60;;;;;;;;;;4995656;28;20038;-67
2022/06/18 00:19:04;;;;;;;6.38;2.53;;;;;;;;;;4987578;28;20049;-66
2022/06/18 00:21:31;;;;;;;6.72;2.83;;;;;;;;;;4996589;28;20213;-67
2022/06/18 00:23:58;;;;;;;6.32;2.78;;;;;;;;;;4997808;28;20045;-67
2022/06/18 00:26:24;;;;;;;6.28;2.70;;;;;;;;;;4996135;28;20054;-67
2022/06/18 00:28:51;;;;;;;5.88;2.58;;;;;;;;;;4998340;28;20034;-67
2022/06/18 00:31:18;;;;;;;4.32;2.63;;;;;;;;;;4997915;28;20038;-67
2022/06/18 00:33:45;;;;;;;4.60;2.70;;;;;;;;;;4994516;28;20038;-68
2022/06/18 00:36:15;;;;;;;4.15;2.30;;;;;;;;;;4995944;28;20042;-67
2022/06/18 00:38:43;;;;;;;4.40;2.38;;;;;;;;;;4988463;28;20058;-67
2022/06/18 00:41:15;;;;;;;4.65;2.50;;;;;;;;;;4995221;28;20054;-67
2022/06/18 00:43:44;;;;;;;5.70;2.83;;;;;;;;;;4992808;28;20049;-67
2022/06/18 00:46:36;;;;;;;6.68;2.70;;;;;;;;;;4998640;28;20532;-67
2022/06/18 00:49:07;;;;;;;5.40;2.65;;;;;;;;;;4978465;28;20050;-64
2022/06/18 00:51:40;;;;;;;5.93;2.35;;;;;;;;;;4996151;28;20088;-67
2022/06/18 00:54:18;;;;;;;4.47;2.80;;;;;;;;;;4995747;28;20049;-67
2022/06/18 00:56:50;;;;;;;5.82;2.67;;;;;;;;;;4993749;28;20577;-67
2022/06/18 00:59:45;;;;;;;5.77;2.70;;;;;;;;;;4997265;28;20038;-69
2022/06/18 01:02:16;;;;;;;5.38;2.70;;;;;;;;;;4989841;28;20145;-66
2022/06/18 01:04:44;;;;;;;4.88;2.90;;;;;;;;;;4995737;28;20049;-68
2022/06/18 01:07:31;;;;;;;5.07;2.65;;;;;;;;;;4998039;28;20038;-67
2022/06/18 01:09:58;;;;;;;4.50;2.42;;;;;;;;;;4997937;28;20137;-65
2022/06/18 01:12:25;;;;;;;6.35;2.75;;;;;;;;;;4985946;28;20444;-68
2022/06/18 01:14:54;;;;;;;4.03;2.53;;;;;;;;;;5005626;28;20087;-67
2022/06/18 01:17:21;;;;;;;4.93;2.75;;;;;;;;;;5003485;28;20049;-68
2022/06/18 01:19:49;;;;;;;4.88;2.50;;;;;;;;;;5008355;28;20049;-66
2022/06/18 01:22:19;;;;;;;8.65;2.85;;;;;;;;;;5014919;28;20033;-67
2022/06/18 01:24:46;;;;;;;5.03;2.75;;;;;;;;;;5018504;28;20057;-65
2022/06/18 01:27:13;;;;;;;4.88;2.47;;;;;;;;;;5018940;28;20040;-67
2022/06/18 01:29:40;;;;;;;5.93;2.85;;;;;;;;;;5015628;28;20031;-67
2022/06/18 01:32:07;;;;;;;5.15;3.20;;;;;;;;;;5014752;28;20120;-65
2022/06/18 01:34:35;;;;;;;8.63;3.50;;;;;;;;;;5015238;28;20045;-63
2022/06/18 01:37:02;;;;;;;6.75;3.25;;;;;;;;;;5016374;28;20150;-64
2022/06/18 01:39:33;;;;;;;6.75;3.03;;;;;;;;;;5017546;28;20397;-64
2022/06/18 01:42:05;;;;;;;4.85;2.78;;;;;;;;;;5014935;28;20030;-64
2022/06/18 01:44:38;;;;;;;5.05;2.95;;;;;;;;;;5014300;28;20056;-64
2022/06/18 01:47:17;;;;;;;5.18;2.88;;;;;;;;;;5015157;28;20050;-64
2022/06/18 01:50:07;;;;;;;5.32;2.75;;;;;;;;;;5016192;28;20045;-65
2022/06/18 01:52:39;;;;;;;6.82;3.08;;;;;;;;;;5013527;28;20049;-69
2022/06/18 01:55:17;;;;;;;5.75;2.92;;;;;;;;;;5017513;28;20041;-69
2022/06/18 01:57:48;;;;;;;6.85;3.03;;;;;;;;;;5017968;28;20038;-67
2022/06/18 02:00:17;;;;;;;6.28;3.60;;;;;;;;;;5017214;28;20049;-68
2022/06/18 02:02:45;;;;;;;5.97;3.20;;;;;;;;;;5016357;28;20041;-68
2022/06/18 02:05:13;;;;;;;9.98;3.08;;;;;;;;;;5018235;28;20049;-67
2022/06/18 02:07:40;;;;;;;5.88;3.05;;;;;;;;;;5018162;28;20037;-67
2022/06/18 02:10:09;;;;;;;6.53;3.60;;;;;;;;;;5014465;28;20034;-67
2022/06/18 02:12:37;;;;;;;6.18;3.67;;;;;;;;;;5016794;28;20045;-67
2022/06/18 02:15:07;;;;;;;5.20;3.40;;;;;;;;;;5016459;28;21159;-69
2022/06/18 02:17:34;;;;;;;5.18;3.47;;;;;;;;;;5018584;28;20033;-66
2022/06/18 02:20:09;;;;;;;7.15;4.07;;;;;;;;;;5017765;28;20129;-65
2022/06/18 02:22:39;;;;;;;6.70;3.58;;;;;;;;;;4998344;28;20145;-65
2022/06/18 02:25:06;;;;;;;5.28;3.90;;;;;;;;;;5006218;28;20053;-65
2022/06/18 02:27:33;;;;;;;6.65;4.35;;;;;;;;;;4991101;28;20822;-64
2022/06/18 02:30:00;;;;;;;7.45;4.30;;;;;;;;;;5004025;28;20073;-66
2022/06/18 02:32:35;;;;;;;8.32;4.57;;;;;;;;;;4995345;28;20073;-66
2022/06/18 02:35:09;;;;;;;9.50;4.20;;;;;;;;;;4992173;28;20041;-65
2022/06/18 02:37:36;;;;;;;6.10;4.20;;;;;;;;;;5007408;28;20133;-64
2022/06/18 02:40:03;;;;;;;7.82;4.35;;;;;;;;;;5012877;28;20128;-64
2022/06/18 02:42:32;;;;;;;5.55;4.15;;;;;;;;;;5012352;28;20033;-64
2022/06/18 02:44:59;;;;;;;6.38;4.65;;;;;;;;;;5014130;28;20046;-65
2022/06/18 02:47:26;;;;;;;8.80;5.07;;;;;;;;;;5016249;28;20041;-63
2022/06/18 02:49:58;;;;;;;8.88;5.13;;;;;;;;;;5014864;28;20069;-63
2022/06/18 02:52:27;;;;;;;6.70;5.13;;;;;;;;;;5014213;28;20041;-62
2022/06/18 03:03:51;;;;;;;;;;;;;;;;;;5216971;22;20040;-72
2022/06/18 03:06:19;;;;;;;8.93;6.07;;;;;;;;;;5029690;23;19925;-63
2022/06/18 03:08:48;;;;;;;10.73;6.55;;;;;;;;;;5030728;28;20049;-64
2022/06/18 03:14:01;;;;;;;12.18;7.05;;;;;;;;;;5019462;28;20052;-63
2022/06/18 03:16:28;;;;;;;10.68;7.00;;;;;;;;;;5022452;28;20036;-63
2022/06/18 03:18:56;;;;;;;9.38;6.88;;;;;;;;;;5004261;28;20042;-64
2022/06/18 03:21:26;;;;;;;8.52;6.00;;;;;;;;;;5014148;28;20034;-63
2022/06/18 03:23:53;;;;;;;9.93;6.30;;;;;;;;;;5018179;28;20052;-63
2022/06/18 03:26:20;;;;;;;9.38;5.85;;;;;;;;;;5019862;28;20045;-63
2022/06/18 03:28:47;;;;;;;11.02;6.53;;;;;;;;;;5022910;28;20172;-62
2022/06/18 03:31:14;;;;;;;9.02;6.88;;;;;;;;;;5014818;28;20068;-62
2022/06/18 03:33:41;;;;;;;7.75;5.40;;;;;;;;;;5033628;28;20045;-62
2022/06/18 03:36:08;;;;;;;9.55;6.43;;;;;;;;;;5018727;28;20603;-63
2022/06/18 03:38:35;;;;;;;13.60;7.75;;;;;;;;;;5019307;28;20360;-62
2022/06/18 03:41:02;;;;;;;9.93;7.47;;;;;;;;;;5032225;28;20045;-63
2022/06/18 03:43:31;;;;;;;9.77;7.85;;;;;;;;;;5015573;28;20041;-64
2022/06/18 03:46:02;;;;;;;11.10;7.97;;;;;;;;;;5014212;28;20599;-62
2022/06/18 03:48:47;;;;;;;9.98;7.57;;;;;;;;;;5012347;28;20045;-62
2022/06/18 03:51:14;;;;;;;12.25;7.65;;;;;;;;;;5010820;28;20049;-63
2022/06/18 03:53:41;;;;;;;13.15;8.35;;;;;;;;;;5004422;28;20064;-62
2022/06/18 03:56:10;;;;;;;12.00;8.05;;;;;;;;;;5013259;28;20069;-63
2022/06/18 03:58:37;;;;;;;11.48;7.78;;;;;;;;;;5004861;28;20041;-63
2022/06/18 04:01:04;;;;;;;10.75;7.45;;;;;;;;;;5013626;28;20124;-64
2022/06/18 04:03:31;;;;;;;12.00;7.72;;;;;;;;;;5011227;28;20029;-64
2022/06/18 04:05:57;;;;;;;12.73;8.10;;;;;;;;;;5008284;28;20409;-64
2022/06/18 04:08:24;;;;;;;12.30;7.28;;;;;;;;;;5015997;28;20074;-64
2022/06/18 04:10:51;;;;;;;11.20;8.43;;;;;;;;;;5015996;28;20049;-64
2022/06/18 04:13:18;;;;;;;11.65;8.93;;;;;;;;;;5014911;28;20061;-63
2022/06/18 04:15:45;;;;;;;10.38;8.20;;;;;;;;;;5014064;28;20488;-64
2022/06/18 04:18:16;;;;;;;14.10;9.93;;;;;;;;;;5012951;28;20037;-63
2022/06/18 04:20:43;;;;;;;11.48;8.88;;;;;;;;;;5010454;28;20108;-64
2022/06/18 04:23:11;;;;;;;10.25;8.55;;;;;;;;;;5004294;28;20128;-63
2022/06/18 04:25:38;;;;;;;12.05;8.45;;;;;;;;;;5015397;28;20049;-63
2022/06/18 04:28:05;;;;;;;11.20;7.93;;;;;;;;;;5017613;28;20053;-66
2022/06/18 04:30:33;;;;;;;11.02;8.15;;;;;;;;;;5016429;28;20124;-63
2022/06/18 04:33:00;;;;;;;10.85;8.25;;;;;;;;;;5014233;28;20397;-63
2022/06/18 04:35:27;;;;;;;10.02;7.88;;;;;;;;;;5013872;28;20045;-64
2022/06/18 04:37:53;;;;;;;11.27;8.75;;;;;;;;;;5019680;28;20052;-64
2022/06/18 04:40:22;;;;;;;10.75;7.57;;;;;;;;;;5016914;28;20049;-62
2022/06/18 04:42:49;;;;;;;10.02;7.32;;;;;;;;;;5019853;28;20087;-63
2022/06/18 04:45:15;;;;;;;12.70;7.18;;;;;;;;;;5030276;28;20060;-64
2022/06/18 04:47:42;;;;;;;10.30;7.70;;;;;;;;;;5039289;28;20044;-63
2022/06/18 04:50:15;;;;;;;10.05;8.18;;;;;;;;;;5039734;28;20045;-63
2022/06/18 04:52:46;;;;;;;10.88;7.70;;;;;;;;;;5037491;28;20060;-63
2022/06/18 04:55:13;;;;;;;11.23;8.10;;;;;;;;;;5039381;28;20043;-63
2022/06/18 04:57:39;;;;;;;11.73;8.75;;;;;;;;;;5038411;28;20040;-62
2022/06/18 05:00:07;;;;;;;10.77;8.40;;;;;;;;;;5036279;28;20073;-63
2022/06/18 05:02:34;;;;;;;10.77;8.48;;;;;;;;;;5036674;28;20073;-62
2022/06/18 05:05:02;;;;;;;13.38;8.68;;;;;;;;;;5020224;28;20057;-62
2022/06/18 05:07:28;;;;;;;11.18;8.10;;;;;;;;;;5037717;28;20036;-62
2022/06/18 05:09:55;;;;;;;11.00;8.43;;;;;;;;;;5037549;28;20037;-62
2022/06/18 05:12:21;;;;;;;10.38;7.93;;;;;;;;;;5036637;28;20527;-62
2022/06/18 05:14:48;;;;;;;11.40;8.30;;;;;;;;;;5037889;28;20073;-62
2022/06/18 05:17:21;;;;;;;10.45;8.15;;;;;;;;;;5038354;28;20033;-63
2022/06/18 05:19:48;;;;;;;12.43;8.27;;;;;;;;;;5036610;28;20276;-63
2022/06/18 05:22:15;;;;;;;11.23;8.65;;;;;;;;;;5037237;28;20321;-62
2022/06/18 05:24:42;;;;;;;12.02;8.05;;;;;;;;;;5036482;28;20048;-62
2022/06/18 05:27:15;;;;;;;10.70;7.97;;;;;;;;;;5038354;28;20033;-64
2022/06/18 05:29:41;;;;;;;12.15;9.07;;;;;;;;;;5037208;28;20111;-61
2022/06/18 05:32:08;;;;;;;12.27;10.20;;;;;;;;;;5037133;28;20159;-61
2022/06/18 05:34:35;;;;;;;11.88;9.02;;;;;;;;;;5036612;28;20041;-62
2022/06/18 05:37:02;;;;;;;11.48;9.77;;;;;;;;;;5037610;28;20458;-62
2022/06/18 05:39:28;;;;;;;13.73;10.93;;;;;;;;;;5020753;28;20049;-62
2022/06/18 05:41:55;;;;;;;12.93;10.27;;;;;;;;;;5030152;28;20753;-62
2022/06/18 05:44:21;;;;;;;14.18;10.57;;;;;;;;;;5028405;28;20037;-62
2022/06/18 05:46:48;;;;;;;12.75;10.27;;;;;;;;;;5017689;28;20037;-62
2022/06/18 05:49:15;;;;;;;13.95;11.18;;;;;;;;;;5016752;28;20403;-62
2022/06/18 05:51:42;;;;;;;15.88;10.85;;;;;;;;;;5012161;28;20045;-62
2022/06/18 05:54:08;;;;;;;14.55;11.13;;;;;;;;;;5015351;28;20529;-62
2022/06/18 05:56:35;;;;;;;13.63;10.63;;;;;;;;;;5014974;28;20187;-62
2022/06/18 05:59:01;;;;;;;13.82;10.48;;;;;;;;;;5014528;28;20077;-62
2022/06/18 06:01:28;;;;;;;16.52;11.00;;;;;;;;;;5013175;28;20047;-63
2022/06/18 06:03:56;;;;;;;14.75;10.98;;;;;;;;;;5015155;28;20033;-63
2022/06/18 06:06:23;;;;;;;13.30;10.45;;;;;;;;;;5014080;28;20046;-64
2022/06/18 06:08:50;;;;;;;15.82;11.73;;;;;;;;;;5015958;28;20037;-63
2022/06/18 06:11:38;;;;;;;12.63;9.95;;;;;;;;;;5013479;28;20044;-63
2022/06/18 06:14:04;;;;;;;14.85;11.13;;;;;;;;;;5015511;28;20038;-63
2022/06/18 06:16:31;;;;;;;15.20;11.23;;;;;;;;;;5016329;28;20056;-63
2022/06/18 06:18:57;;;;;;;14.63;10.57;;;;;;;;;;5014806;28;20060;-63
2022/06/18 06:21:24;;;;;;;14.57;11.27;;;;;;;;;;5014939;28;22201;-63
2022/06/18 06:23:51;;;;;;;15.30;12.00;;;;;;;;;;5015910;28;20041;-63
2022/06/18 06:26:27;;;;;;;15.75;12.02;;;;;;;;;;5014706;28;20037;-63
2022/06/18 06:28:54;;;;;;;15.07;11.70;;;;;;;;;;5014096;28;20049;-62
2022/06/18 06:31:21;;;;;;;15.43;12.05;;;;;;;;;;5030011;28;20033;-62
2022/06/18 06:33:48;;;;;;;16.92;11.55;;;;;;;;;;5014942;28;20064;-62
2022/06/18 06:36:14;;;;;;;17.77;11.60;;;;;;;;;;5013578;28;20133;-62
2022/06/18 06:38:41;;;;;;;16.02;11.68;;;;;;;;;;5013321;28;20081;-62
2022/06/18 06:41:15;;;;;;;15.60;11.63;;;;;;;;;;5014052;28;20045;-62
2022/06/18 06:43:41;;;;;;;15.45;12.07;;;;;;;;;;5013127;28;20041;-62
2022/06/18 06:46:12;;;;;;;16.10;12.48;;;;;;;;;;5014047;28;20187;-62
2022/06/18 06:48:39;;;;;;;15.02;11.48;;;;;;;;;;5012650;28;20048;-63
2022/06/18 06:51:13;;;;;;;16.75;12.00;;;;;;;;;;5014557;28;20107;-63
2022/06/18 06:53:40;;;;;;;15.57;12.05;;;;;;;;;;5029786;28;20856;-63
2022/06/18 06:58:55;;;;;;;16.00;12.20;;;;;;;;;;5015658;28;20044;-62
2022/06/18 07:01:22;;;;;;;15.88;11.98;;;;;;;;;;5014539;28;20037;-63
2022/06/18 07:03:48;;;;;;;15.82;12.18;;;;;;;;;;5032784;28;20529;-62
2022/06/18 07:06:16;;;;;;;15.73;12.27;;;;;;;;;;5014774;28;20049;-62
2022/06/18 07:08:44;;;;;;;14.88;12.02;;;;;;;;;;5012838;28;20045;-62
2022/06/18 07:11:11;;;;;;;14.32;11.45;;;;;;;;;;5014708;28;20068;-63
2022/06/18 07:13:37;;;;;;;16.05;12.10;;;;;;;;;;5015112;28;20053;-64
2022/06/18 07:16:04;;;;;;;17.67;13.02;;;;;;;;;;5016353;28;20042;-63
2022/06/18 07:18:32;;;;;;;15.77;12.05;;;;;;;;;;5014389;28;20486;-62
2022/06/18 07:21:03;;;;;;;17.48;12.85;;;;;;;;;;5016086;28;20049;-63
2022/06/18 07:23:30;;;;;;;17.05;12.10;;;;;;;;;;5014268;28;20225;-63
2022/06/18 07:25:57;;;;;;;17.92;13.25;;;;;;;;;;5016040;28;20129;-62
2022/06/18 07:28:24;;;;;;;18.38;13.05;;;;;;;;;;5014923;28;20037;-62
2022/06/18 07:30:51;;;;;;;17.33;13.20;;;;;;;;;;5021769;28;20041;-63
2022/06/18 07:33:19;;;;;;;15.82;11.95;;;;;;;;;;5015012;28;20052;-63
2022/06/18 07:35:46;;;;;;;17.48;12.75;;;;;;;;;;5014727;28;20033;-63
2022/06/18 07:38:12;;;;;;;16.65;12.98;;;;;;;;;;5032596;28;20042;-63
2022/06/18 07:40:44;;;;;;;16.98;12.88;;;;;;;;;;5014692;28;20316;-63
2022/06/18 07:43:13;;;;;;;21.00;14.27;;;;;;;;;;5016156;28;20041;-63
2022/06/18 07:45:40;;;;;;;19.95;13.50;;;;;;;;;;5013752;28;20042;-63
2022/06/18 07:48:06;;;;;;;20.15;14.23;;;;;;;;;;5016439;28;20126;-63
2022/06/18 07:50:33;;;;;;;20.10;14.88;;;;;;;;;;5015897;28;20029;-63
2022/06/18 07:53:00;;;;;;;27.05;14.75;;;;;;;;;;5015353;28;20036;-63
2022/06/18 07:55:27;;;;;;;25.05;15.98;;;;;;;;;;5013927;28;20417;-63
2022/06/18 07:57:54;;;;;;;25.02;16.85;;;;;;;;;;5014723;28;20057;-64
2022/06/18 08:00:22;;;;;;;24.48;16.65;;;;;;;;;;5016704;28;20063;-64
2022/06/18 08:02:49;;;;;;;26.13;17.08;;;;;;;;;;5018151;28;20044;-63
2022/06/18 08:05:27;;;;;;;28.23;18.13;;;;;;;;;;5017155;28;20095;-63
2022/06/18 08:07:54;;;;;;;28.90;19.13;;;;;;;;;;5017150;28;20599;-63
2022/06/18 08:10:20;;;;;;;28.42;18.55;;;;;;;;;;5017018;28;20037;-63
2022/06/18 08:12:47;;;;;;;33.00;18.80;;;;;;;;;;5017528;28;20128;-62
2022/06/18 08:15:14;;;;;;;26.30;17.35;;;;;;;;;;5017789;28;20034;-63
2022/06/18 08:17:41;;;;;;;29.25;17.45;;;;;;;;;;5018151;28;20049;-63
2022/06/18 08:20:08;;;;;;;25.00;15.85;;;;;;;;;;5018306;28;20077;-63
2022/06/18 08:22:36;;;;;;;24.30;16.25;;;;;;;;;;5019914;28;20038;-63
2022/06/18 08:25:03;;;;;;;26.75;16.98;;;;;;;;;;5017494;28;20831;-64
2022/06/18 08:27:30;;;;;;;26.05;16.55;;;;;;;;;;5028203;28;20415;-63
2022/06/18 08:29:57;;;;;;;23.50;15.75;;;;;;;;;;5008730;28;20049;-63
2022/06/18 08:32:24;;;;;;;23.30;16.52;;;;;;;;;;5014710;28;20409;-64
2022/06/18 08:34:50;;;;;;;26.40;15.80;;;;;;;;;;5017254;28;20036;-63
2022/06/18 08:37:17;;;;;;;23.25;15.07;;;;;;;;;;5016999;28;20132;-63
2022/06/18 08:39:43;;;;;;;22.77;14.95;;;;;;;;;;5032247;28;20145;-64
2022/06/18 08:42:16;;;;;;;20.88;13.75;;;;;;;;;;5008889;28;20045;-63
2022/06/18 08:44:43;;;;;;;19.02;12.73;;;;;;;;;;5017493;28;20041;-62
2022/06/18 08:47:10;;;;;;;19.90;13.25;;;;;;;;;;5017178;28;20541;-62
2022/06/18 08:49:37;;;;;;;18.17;12.30;;;;;;;;;;5017036;28;20093;-63
2022/06/18 08:52:03;;;;;;;19.52;11.70;;;;;;;;;;5009707;28;20082;-62
2022/06/18 08:54:30;;;;;;;18.30;11.82;;;;;;;;;;5015649;28;20192;-61
2022/06/18 08:56:57;;;;;;;19.52;12.32;;;;;;;;;;5017202;28;20030;-62
2022/06/18 08:59:23;;;;;;;17.60;11.70;;;;;;;;;;5015969;28;20060;-62
2022/06/18 09:01:58;;;;;;;16.92;11.75;;;;;;;;;;5012360;28;20045;-60
2022/06/18 09:04:33;;;;;;;18.58;11.32;;;;;;;;;;5006944;28;20052;-60
2022/06/18 09:07:09;;;;;;;15.80;11.82;;;;;;;;;;5006810;28;20896;-60
2022/06/18 09:09:49;;;;;;;18.80;11.57;;;;;;;;;;5014888;28;20072;-62
2022/06/18 09:12:25;;;;;;;15.15;10.68;;;;;;;;;;5014558;28;20052;-60
2022/06/18 09:14:52;;;;;;;14.48;10.63;;;;;;;;;;5025757;28;20064;-60
2022/06/18 09:17:18;;;;;;;14.50;9.95;;;;;;;;;;5025079;28;20029;-60
2022/06/18 09:19:47;;;;;;;17.92;11.85;;;;;;;;;;5027878;28;20455;-60
2022/06/18 09:22:18;;;;;;;17.92;11.40;;;;;;;;;;5015803;28;20540;-61
2022/06/18 09:24:47;;;;;;;15.35;11.10;;;;;;;;;;5032574;28;20073;-63
2022/06/18 09:27:24;;;;;;;15.43;11.25;;;;;;;;;;5016829;28;20038;-61
2022/06/18 09:29:51;;;;;;;17.70;11.85;;;;;;;;;;5016885;28;20213;-61
2022/06/18 09:32:32;;;;;;;18.73;12.27;;;;;;;;;;5014815;28;20128;-61
2022/06/18 09:35:08;;;;;;;16.67;12.02;;;;;;;;;;5031111;28;20048;-61
2022/06/18 09:37:35;;;;;;;16.00;11.07;;;;;;;;;;5026915;28;20061;-61
2022/06/18 09:40:03;;;;;;;16.30;11.05;;;;;;;;;;5028293;28;20048;-60
2022/06/18 09:42:35;;;;;;;15.27;11.02;;;;;;;;;;5024679;28;20065;-59
2022/06/18 09:45:10;;;;;;;15.93;10.43;;;;;;;;;;5030694;28;20029;-61
2022/06/18 09:47:39;;;;;;;16.40;10.82;;;;;;;;;;5018460;28;20798;-61
2022/06/18 09:50:32;;;;;;;15.15;11.10;;;;;;;;;;5028831;28;20037;-61
2022/06/18 09:53:04;;;;;;;14.65;10.27;;;;;;;;;;5003519;28;20179;-61
2022/06/18 09:55:40;;;;;;;12.90;9.30;;;;;;;;;;5037458;28;20041;-61
2022/06/18 09:58:09;;;;;;;14.35;9.75;;;;;;;;;;5038379;28;20048;-63
2022/06/18 10:00:36;;;;;;;13.18;9.45;;;;;;;;;;5036242;28;20057;-63
2022/06/18 10:03:08;;;;;;;13.45;9.05;;;;;;;;;;5036962;28;20041;-63
2022/06/18 10:08:37;;;;;;;13.32;8.60;;;;;;;;;;5036310;28;20877;-61
2022/06/18 10:11:07;;;;;;;13.52;9.20;;;;;;;;;;5013822;28;20037;-62
2022/06/18 10:13:38;;;;;;;12.98;8.95;;;;;;;;;;5036518;28;20306;-62
2022/06/18 10:16:11;;;;;;;15.15;10.18;;;;;;;;;;5037604;28;20049;-62
2022/06/18 10:18:47;;;;;;;13.57;9.43;;;;;;;;;;5033972;28;20114;-62
2022/06/18 10:21:19;;;;;;;13.50;9.63;;;;;;;;;;5013655;28;20054;-62
2022/06/18 10:23:54;;;;;;;13.25;8.85;;;;;;;;;;5017827;28;20041;-62
2022/06/18 10:26:33;;;;;;;14.45;9.15;;;;;;;;;;5018425;28;20048;-61
2022/06/18 10:29:18;;;;;;;14.00;9.20;;;;;;;;;;5020924;28;20048;-60
2022/06/18 10:31:45;;;;;;;13.15;9.27;;;;;;;;;;5030598;28;20046;-62
2022/06/18 10:34:17;;;;;;;12.32;9.30;;;;;;;;;;5023418;28;20521;-61
2022/06/18 10:37:02;;;;;;;11.82;8.18;;;;;;;;;;5036452;28;20060;-62
2022/06/18 10:39:44;;;;;;;10.75;7.55;;;;;;;;;;5035159;28;20049;-62
2022/06/18 10:42:14;;;;;;;9.93;7.25;;;;;;;;;;5035875;28;20064;-62
2022/06/18 10:44:43;;;;;;;12.07;7.18;;;;;;;;;;5035323;28;20067;-61
2022/06/18 10:47:15;;;;;;;14.77;7.32;;;;;;;;;;5036116;28;20051;-61
2022/06/18 10:49:41;;;;;;;11.63;7.45;;;;;;;;;;5034827;28;20128;-61
2022/06/18 10:52:25;;;;;;;10.15;7.05;;;;;;;;;;5034275;28;20199;-60
2022/06/18 10:55:05;;;;;;;11.20;7.35;;;;;;;;;;5033810;28;21858;-61
2022/06/18 10:57:31;;;;;;;12.32;7.97;;;;;;;;;;5029534;28;20152;-61
2022/06/18 11:00:08;;;;;;;12.68;7.97;;;;;;;;;;5020955;28;21868;-60
2022/06/18 11:02:36;;;;;;;11.73;7.57;;;;;;;;;;5034167;28;20124;-60
2022/06/18 11:05:15;;;;;;;13.10;8.60;;;;;;;;;;5036650;28;20548;-61
2022/06/18 11:07:46;;;;;;;12.85;7.82;;;;;;;;;;5035215;28;20041;-61
2022/06/18 11:10:28;;;;;;;14.18;8.48;;;;;;;;;;5034468;28;20128;-62
2022/06/18 11:12:56;;;;;;;14.20;8.38;;;;;;;;;;5033805;28;20107;-62
2022/06/18 11:15:25;;;;;;;13.32;8.77;;;;;;;;;;5024492;28;20044;-62
2022/06/18 11:17:51;;;;;;;13.70;8.40;;;;;;;;;;5026038;28;20069;-62
2022/06/18 11:20:19;;;;;;;12.93;8.18;;;;;;;;;;5035600;28;20165;-62
2022/06/18 11:22:50;;;;;;;12.23;8.23;;;;;;;;;;5033308;28;20045;-62
2022/06/18 11:25:39;;;;;;;14.43;9.07;;;;;;;;;;5034971;28;20243;-61
2022/06/18 11:28:20;;;;;;;12.50;8.18;;;;;;;;;;5033255;28;20041;-61
2022/06/18 11:30:47;;;;;;;13.13;8.55;;;;;;;;;;5035008;28;20079;-62
2022/06/18 11:33:21;;;;;;;12.57;8.57;;;;;;;;;;5035671;28;20037;-60
2022/06/18 11:35:50;;;;;;;;;;;;;;;;;;5041107;28;20561;-61
2022/06/18 11:38:30;;;;;;;12.38;8.27;;;;;;;;;;5039771;28;19962;-61
2022/06/18 11:40:59;;;;;;;13.75;8.50;;;;;;;;;;5038429;28;20048;-59
2022/06/18 11:43:26;;;;;;;13.00;7.63;;;;;;;;;;5038942;28;20059;-60
2022/06/18 11:45:55;;;;;;;13.73;8.65;;;;;;;;;;5039242;28;20060;-62
2022/06/18 11:49:00;;;;;;;14.60;8.38;;;;;;;;;;5039559;28;20060;-61
2022/06/18 11:51:30;;;;;;;12.23;8.32;;;;;;;;;;4957906;28;20046;-62
2022/06/18 11:54:15;;;;;;;11.60;7.80;;;;;;;;;;4959771;28;20097;-62
2022/06/18 11:57:08;;;;;;;12.30;8.30;;;;;;;;;;5006794;28;20133;-62
2022/06/18 11:59:57;;;;;;;13.65;8.82;;;;;;;;;;5016767;28;20151;-61
2022/06/18 12:02:27;;;;;;;12.35;8.45;;;;;;;;;;5030728;28;20044;-61
2022/06/18 12:05:15;;;;;;;13.57;9.68;;;;;;;;;;5038895;28;20538;-61
2022/06/18 12:07:49;;;;;;;16.83;9.38;;;;;;;;;;5039698;28;20067;-59
2022/06/18 12:10:17;;;;;;;12.88;8.68;;;;;;;;;;5040691;28;20052;-62
2022/06/18 12:12:52;;;;;;;14.80;8.82;;;;;;;;;;5040294;28;20087;-63
2022/06/18 12:15:33;;;;;;;13.15;8.38;;;;;;;;;;5041347;28;20405;-63
2022/06/18 12:18:13;;;;;;;12.90;8.35;;;;;;;;;;5032720;28;20053;-61
2022/06/18 12:20:51;;;;;;;12.75;8.13;;;;;;;;;;5025394;28;20060;-62
2022/06/18 12:23:18;;;;;;;12.10;7.88;;;;;;;;;;5032844;28;20586;-62
2022/06/18 12:25:48;;;;;;;15.20;9.00;;;;;;;;;;5040074;28;20512;-61
2022/06/18 12:28:34;;;;;;;12.65;8.35;;;;;;;;;;5038075;28;20045;-62
2022/06/18 12:31:21;;;;;;;11.43;7.90;;;;;;;;;;5037904;28;20064;-63
2022/06/18 12:34:06;;;;;;;12.73;7.95;;;;;;;;;;5037611;28;20037;-62
2022/06/18 12:36:56;;;;;;;11.93;8.07;;;;;;;;;;5030444;28;20137;-62
2022/06/18 12:39:29;;;;;;;15.35;9.32;;;;;;;;;;5026078;28;20051;-62
2022/06/18 12:42:00;;;;;;;12.18;8.20;;;;;;;;;;5040719;28;20049;-64
2022/06/18 12:44:30;;;;;;;13.90;8.70;;;;;;;;;;5027777;28;20132;-66
2022/06/18 12:47:03;;;;;;;12.98;9.00;;;;;;;;;;5040216;28;20037;-62
2022/06/18 12:49:34;;;;;;;16.50;9.35;;;;;;;;;;5039663;28;21249;-62
2022/06/18 12:52:26;;;;;;;14.13;8.82;;;;;;;;;;5039058;28;20065;-62
2022/06/18 12:55:03;;;;;;;16.23;9.82;;;;;;;;;;5021478;28;20059;-62
2022/06/18 12:57:36;;;;;;;15.68;9.77;;;;;;;;;;5029342;28;20064;-62
2022/06/18 13:00:06;;;;;;;17.50;10.10;;;;;;;;;;5021539;28;20081;-62
2022/06/18 13:02:35;;;;;;;17.60;10.23;;;;;;;;;;5026576;28;20072;-61
2022/06/18 13:05:32;;;;;;;16.10;10.27;;;;;;;;;;5017726;28;20084;-62
2022/06/18 13:08:05;;;;;;;18.45;10.00;;;;;;;;;;5018842;28;20049;-61
2022/06/18 13:10:43;;;;;;;18.43;11.93;;;;;;;;;;5027580;28;20041;-61
2022/06/18 13:13:38;;;;;;;16.20;10.48;;;;;;;;;;5032273;28;20330;-62
2022/06/18 13:16:14;;;;;;;18.45;11.27;;;;;;;;;;5024329;28;20049;-63
2022/06/18 13:18:48;;;;;;;20.63;12.77;;;;;;;;;;5019966;28;20041;-67
2022/06/18 13:21:15;;;;;;;18.60;12.30;;;;;;;;;;5017084;28;20053;-64
2022/06/18 13:29:26;;;;;;;21.02;13.40;;;;;;;;;;5040497;28;20185;-63
2022/06/18 13:32:12;;;;;;;20.08;13.27;;;;;;;;;;5039785;28;20421;-64
2022/06/18 13:34:51;;;;;;;21.52;14.35;;;;;;;;;;5036975;28;20612;-63
2022/06/18 13:37:21;;;;;;;21.40;13.88;;;;;;;;;;5040713;28;20563;-63
2022/06/18 13:39:55;;;;;;;20.52;13.48;;;;;;;;;;5038642;28;20052;-63
2022/06/18 13:42:34;;;;;;;21.90;14.63;;;;;;;;;;5039195;28;20041;-62
2022/06/18 13:45:27;;;;;;;22.73;13.93;;;;;;;;;;5039400;28;20037;-63
2022/06/18 13:48:05;;;;;;;22.88;15.07;;;;;;;;;;5022871;28;20049;-63
2022/06/18 13:50:46;;;;;;;19.48;13.68;;;;;;;;;;5037602;28;20098;-63
2022/06/18 13:53:42;;;;;;;22.58;14.70;;;;;;;;;;5039154;28;20047;-63
2022/06/18 13:56:29;;;;;;;23.63;14.70;;;;;;;;;;5020680;28;20505;-61
2022/06/18 13:58:57;;;;;;;23.52;14.65;;;;;;;;;;5038620;28;20043;-63
2022/06/18 14:01:25;;;;;;;26.10;15.07;;;;;;;;;;5035850;28;20447;-61
2022/06/18 14:03:55;;;;;;;23.10;14.60;;;;;;;;;;5038037;28;20055;-62
2022/06/18 14:06:22;;;;;;;27.92;15.57;;;;;;;;;;5036599;28;20051;-62
2022/06/18 14:08:51;;;;;;;25.98;15.30;;;;;;;;;;5038790;28;20072;-61
2022/06/18 14:11:29;;;;;;;26.23;16.40;;;;;;;;;;5038014;28;20501;-63
2022/06/18 14:13:57;;;;;;;25.58;16.33;;;;;;;;;;5036933;28;20044;-63
2022/06/18 14:16:38;;;;;;;26.00;15.82;;;;;;;;;;5037360;28;20045;-61
2022/06/18 14:19:26;;;;;;;28.20;16.00;;;;;;;;;;5038530;28;20773;-60
2022/06/18 14:22:11;;;;;;;27.98;17.58;;;;;;;;;;5037630;28;20049;-62
2022/06/18 14:24:58;;;;;;;29.27;18.45;;;;;;;;;;5035723;28;20089;-62
2022/06/18 14:27:25;;;;;;;30.67;18.42;;;;;;;;;;5035959;28;20045;-62
2022/06/18 14:29:52;;;;;;;27.90;18.42;;;;;;;;;;5037384;28;20040;-62
2022/06/18 14:32:19;;;;;;;29.23;18.13;;;;;;;;;;5037935;28;20079;-65
2022/06/18 14:34:45;;;;;;;31.98;18.30;;;;;;;;;;5034974;28;20033;-63
2022/06/18 14:37:14;;;;;;;30.38;18.88;;;;;;;;;;5037248;28;20072;-63
2022/06/18 14:39:47;;;;;;;27.45;17.80;;;;;;;;;;5034748;28;20048;-63
2022/06/18 14:42:31;;;;;;;30.95;18.55;;;;;;;;;;5035570;28;20705;-63
2022/06/18 14:45:10;;;;;;;27.20;17.17;;;;;;;;;;5034149;28;20044;-65
2022/06/18 14:47:43;;;;;;;27.52;18.15;;;;;;;;;;5035931;28;20148;-63
2022/06/18 14:50:12;;;;;;;27.38;17.67;;;;;;;;;;5036664;28;20057;-66
2022/06/18 14:52:42;;;;;;;28.33;17.77;;;;;;;;;;5035817;28;20037;-65
2022/06/18 14:55:34;;;;;;;25.27;17.63;;;;;;;;;;5036598;28;20815;-65
2022/06/18 14:58:20;;;;;;;27.27;17.73;;;;;;;;;;5037064;28;20045;-67
2022/06/18 15:01:05;;;;;;;28.45;19.10;;;;;;;;;;5034680;28;20045;-66
2022/06/18 15:03:36;;;;;;;26.45;18.33;;;;;;;;;;5038314;28;20049;-67
2022/06/18 15:06:09;;;;;;;26.08;17.42;;;;;;;;;;5038479;28;20136;-62
2022/06/18 15:08:54;;;;;;;23.92;17.45;;;;;;;;;;5035391;28;20519;-65
2022/06/18 15:11:21;;;;;;;23.48;16.95;;;;;;;;;;5033488;28;20087;-65
2022/06/18 15:13:49;;;;;;;26.67;18.23;;;;;;;;;;5034577;28;20037;-64
2022/06/18 15:25:21;;;;;;;21.65;15.85;;;;;;;;;;4978437;28;20592;-64
2022/06/18 15:27:13;;;;;;;23.55;16.98;;;;;;;;;;5036208;28;20083;-63